Terminal Aerodrome Forecast
Issued by NWS

Home | Current Version | Previous Version | Text Only | Print | Product List | Glossary Off
Versions: 1 2 3 4 5 6 7 8 9 10 11 12 13 14

860
FTUS45 KGGW 020520
TAFSDY
TAF
KSDY 020520Z 0206/0306 26007KT P6SM SCT120
     FM021200 28010KT P6SM SCT140
     FM021600 32013KT P6SM SCT140
     FM030300 34004KT P6SM FEW250
      AMD LTD TO CLD VIS AND WIND=

USA.gov is the U.S. government's official web portal to all federal, state and local government web resources and services.